createdAt,value
2018-01-04T00:00:18.436Z,30.20
2018-01-04T00:02:45.844Z,25.60
2018-01-04T00:05:13.265Z,30.63
2018-01-04T00:07:40.669Z,33.10
2018-01-04T00:10:08.076Z,35.87
2018-01-04T00:12:35.485Z,33.23
2018-01-04T00:15:02.898Z,30.73
2018-01-04T00:17:30.305Z,32.40
2018-01-04T00:19:57.709Z,34.67
2018-01-04T00:22:25.130Z,39.00
2018-01-04T00:24:52.533Z,35.63
2018-01-04T00:27:19.968Z,38.30
2018-01-04T00:29:47.377Z,27.20
2018-01-04T00:32:14.789Z,23.87
2018-01-04T00:34:42.201Z,35.47
2018-01-04T00:37:09.609Z,37.83
2018-01-04T00:39:37.037Z,30.87
2018-01-04T00:42:04.442Z,33.33
2018-01-04T00:44:31.849Z,38.53
2018-01-04T00:46:59.267Z,33.67
2018-01-04T00:49:26.668Z,34.13
2018-01-04T00:51:54.076Z,50.47
2018-01-04T00:54:21.477Z,37.57
2018-01-04T00:56:48.897Z,36.77
2018-01-04T00:59:16.319Z,37.37
2018-01-04T01:01:43.723Z,35.20
2018-01-04T01:04:11.121Z,29.60
2018-01-04T01:06:39.246Z,25.13
2018-01-04T01:09:06.657Z,41.73
2018-01-04T01:11:34.061Z,29.83
2018-01-04T01:14:01.477Z,29.93
2018-01-04T01:16:28.881Z,32.73
2018-01-04T01:18:56.578Z,35.17
2018-01-04T01:21:23.977Z,37.47
2018-01-04T01:23:51.385Z,37.87
2018-01-04T01:26:18.793Z,38.80
2018-01-04T01:28:46.197Z,33.67
2018-01-04T01:31:13.617Z,33.50
2018-01-04T01:33:41.030Z,29.50
2018-01-04T01:36:08.442Z,30.80
2018-01-04T01:38:35.852Z,35.27
2018-01-04T01:41:03.258Z,34.63
2018-01-04T01:43:30.670Z,34.13
2018-01-04T01:45:58.073Z,31.93
2018-01-04T01:48:25.493Z,40.23
2018-01-04T01:50:52.893Z,48.60
2018-01-04T01:53:20.296Z,37.03
2018-01-04T01:55:47.705Z,43.50
2018-01-04T01:58:15.105Z,28.90
2018-01-04T02:00:42.525Z,35.43
2018-01-04T02:03:09.932Z,31.77
2018-01-04T02:05:37.365Z,34.83
2018-01-04T02:08:04.769Z,34.27
2018-01-04T02:10:32.177Z,40.43
2018-01-04T02:12:59.580Z,32.93
2018-01-04T02:15:26.989Z,42.63
2018-01-04T02:18:06.260Z,37.40
2018-01-04T02:23:49.886Z,38.33
2018-01-04T02:26:29.105Z,43.43
2018-01-04T02:28:57.306Z,38.40
2018-01-04T02:31:36.607Z,44.90
2018-01-04T02:37:14.727Z,41.20
2018-01-04T02:39:53.829Z,52.80
2018-01-04T02:42:33.482Z,36.70
2018-01-04T02:45:12.540Z,45.40
2018-01-04T02:47:40.260Z,39.37
2018-01-04T02:50:07.663Z,37.70
2018-01-04T02:52:35.070Z,34.63
2018-01-04T02:55:02.489Z,40.00
2018-01-04T02:57:29.893Z,30.60
2018-01-04T02:59:57.349Z,36.10
2018-01-04T03:02:24.757Z,38.23
2018-01-04T03:04:52.170Z,49.73
2018-01-04T03:07:19.584Z,33.23
2018-01-04T03:09:46.999Z,34.00
2018-01-04T03:12:14.404Z,36.13
2018-01-04T03:14:41.807Z,30.57
2018-01-04T03:17:09.217Z,38.97
2018-01-04T03:19:36.629Z,38.00
2018-01-04T03:22:09.713Z,33.00
2018-01-04T03:24:42.594Z,39.63
2018-01-04T03:27:15.534Z,44.73
2018-01-04T03:29:42.943Z,41.97
2018-01-04T03:32:15.865Z,46.77
2018-01-04T03:34:48.901Z,46.57
2018-01-04T03:37:21.753Z,45.27
2018-01-04T03:39:54.708Z,40.10
2018-01-04T03:42:27.782Z,40.60
2018-01-04T03:48:00.788Z,36.13
2018-01-04T03:50:33.800Z,43.23
2018-01-04T03:53:06.874Z,42.50
2018-01-04T03:55:39.805Z,39.17
2018-01-04T03:58:07.222Z,36.37
2018-01-04T04:00:40.079Z,37.57
2018-01-04T04:03:07.493Z,45.13
2018-01-04T04:05:40.452Z,39.70
2018-01-04T04:08:13.382Z,34.30
2018-01-04T04:10:40.786Z,38.90
2018-01-04T04:13:08.205Z,37.40
2018-01-04T04:15:35.606Z,41.63
2018-01-04T04:18:03.009Z,40.63
2018-01-04T04:20:30.414Z,37.10
2018-01-04T04:22:57.820Z,46.37
2018-01-04T04:25:25.235Z,30.77
2018-01-04T04:27:52.634Z,39.63
2018-01-04T04:30:20.043Z,33.30
2018-01-04T04:32:47.437Z,40.10
2018-01-04T04:35:14.849Z,35.43
2018-01-04T04:37:42.257Z,31.43
2018-01-04T04:40:09.673Z,36.90
2018-01-04T04:42:37.086Z,44.00
2018-01-04T04:45:04.485Z,40.67
2018-01-04T04:47:31.898Z,39.30
2018-01-04T04:49:59.313Z,42.53
2018-01-04T04:52:26.713Z,38.00
2018-01-04T04:54:54.113Z,47.60
2018-01-04T04:57:21.530Z,33.63
2018-01-04T04:59:48.932Z,50.17
2018-01-04T05:02:16.341Z,39.63
2018-01-04T05:04:43.746Z,34.23
2018-01-04T05:07:11.158Z,37.00
2018-01-04T05:09:38.560Z,31.73
2018-01-04T05:12:05.966Z,42.77
2018-01-04T05:14:33.381Z,46.20
2018-01-04T05:17:00.789Z,34.47
2018-01-04T05:19:28.201Z,40.17
2018-01-04T05:21:55.605Z,28.73
2018-01-04T05:24:23.017Z,42.80
2018-01-04T05:26:50.417Z,35.93
2018-01-04T05:29:17.837Z,43.17
2018-01-04T05:31:45.253Z,44.67
2018-01-04T05:34:12.662Z,43.80
2018-01-04T05:36:40.069Z,33.17
2018-01-04T05:39:07.474Z,32.20
2018-01-04T05:41:34.886Z,29.63
2018-01-04T05:44:02.290Z,33.30
2018-01-04T05:46:29.698Z,38.50
2018-01-04T05:48:57.101Z,45.53
2018-01-04T05:51:24.516Z,39.00
2018-01-04T05:53:51.920Z,44.80
2018-01-04T05:56:19.324Z,35.80
2018-01-04T05:58:46.805Z,37.20
2018-01-04T06:01:14.209Z,33.57
2018-01-04T06:03:41.621Z,28.30
2018-01-04T06:06:09.037Z,31.03
2018-01-04T06:08:36.445Z,35.70
2018-01-04T06:11:03.853Z,32.07
2018-01-04T06:13:31.257Z,39.57
2018-01-04T06:15:58.672Z,23.13
2018-01-04T06:18:26.077Z,30.47
2018-01-04T06:20:53.502Z,30.57
2018-01-04T06:23:20.905Z,41.33
2018-01-04T06:25:48.313Z,32.83
2018-01-04T06:28:15.722Z,36.87
2018-01-04T06:30:43.129Z,33.90
2018-01-04T06:33:10.541Z,27.70
2018-01-04T06:35:37.957Z,29.53
2018-01-04T06:38:05.366Z,29.03
2018-01-04T06:40:32.773Z,30.40
2018-01-04T06:43:00.187Z,37.13
2018-01-04T06:45:27.590Z,30.60
2018-01-04T06:47:55.001Z,27.93
2018-01-04T06:50:22.401Z,25.80
2018-01-04T06:52:49.812Z,27.33
2018-01-04T06:55:17.220Z,28.50
2018-01-04T06:57:44.646Z,28.37
2018-01-04T07:00:12.049Z,33.00
2018-01-04T07:02:39.457Z,39.07
2018-01-04T07:05:06.865Z,27.37
2018-01-04T07:07:34.269Z,30.30
2018-01-04T07:10:01.690Z,28.53
2018-01-04T07:12:29.096Z,33.67
2018-01-04T07:14:56.497Z,25.33
2018-01-04T07:17:23.904Z,26.67
2018-01-04T07:19:51.318Z,28.60
2018-01-04T07:22:18.719Z,32.60
2018-01-04T07:24:46.133Z,33.00
2018-01-04T07:27:13.542Z,31.80
2018-01-04T07:29:40.949Z,30.80
2018-01-04T07:32:08.360Z,33.57
2018-01-04T07:34:35.765Z,32.00
2018-01-04T07:37:03.169Z,31.40
2018-01-04T07:39:30.585Z,30.20
2018-01-04T07:41:57.997Z,23.23
2018-01-04T07:44:25.402Z,21.53
2018-01-04T07:46:52.821Z,29.97
2018-01-04T07:49:20.238Z,26.03
2018-01-04T07:51:47.648Z,29.57
2018-01-04T07:54:15.045Z,33.47
2018-01-04T07:56:42.450Z,23.70
2018-01-04T07:59:09.857Z,33.40
2018-01-04T08:01:37.260Z,30.93
2018-01-04T08:04:04.673Z,21.80
2018-01-04T08:06:32.093Z,27.90
2018-01-04T08:08:59.526Z,25.10
2018-01-04T08:11:26.930Z,21.10
2018-01-04T08:13:54.350Z,29.03
2018-01-04T08:16:21.757Z,23.30
2018-01-04T08:18:49.164Z,25.30
2018-01-04T08:21:16.578Z,21.00
2018-01-04T08:23:43.977Z,26.20
2018-01-04T08:26:11.385Z,25.73
2018-01-04T08:28:38.797Z,18.93
2018-01-04T08:31:06.214Z,29.47
2018-01-04T08:33:33.725Z,28.77
2018-01-04T08:36:01.828Z,27.07
2018-01-04T08:38:29.239Z,19.30
2018-01-04T08:40:56.717Z,24.87
2018-01-04T08:43:24.263Z,29.50
2018-01-04T08:45:52.457Z,22.60
2018-01-04T08:48:19.865Z,28.67
2018-01-04T08:50:47.270Z,18.03
2018-01-04T08:53:14.697Z,17.20
2018-01-04T08:55:43.088Z,21.63
2018-01-04T08:58:10.493Z,24.17
2018-01-04T09:00:38.030Z,21.50
2018-01-04T09:03:05.429Z,26.30
2018-01-04T09:05:33.803Z,22.13
2018-01-04T09:08:02.138Z,20.87
2018-01-04T09:10:29.573Z,18.43
2018-01-04T09:12:56.982Z,20.87
2018-01-04T09:15:24.394Z,19.83
2018-01-04T09:17:51.801Z,18.67
2018-01-04T09:20:19.201Z,18.97
2018-01-04T09:22:46.608Z,16.23
2018-01-04T09:25:14.017Z,11.83
2018-01-04T09:27:41.430Z,12.17
2018-01-04T09:30:08.865Z,14.27
2018-01-04T09:32:36.282Z,10.93
2018-01-04T09:35:03.697Z,15.87
2018-01-04T09:37:31.105Z,10.70
2018-01-04T09:39:58.506Z,15.17
2018-01-04T09:42:25.917Z,14.00
2018-01-04T09:44:53.328Z,17.97
2018-01-04T09:47:20.716Z,10.73
2018-01-04T09:49:48.181Z,11.50
2018-01-04T09:52:15.576Z,10.70
2018-01-04T09:54:43.007Z,10.47
2018-01-04T09:57:10.445Z,13.13
2018-01-04T09:59:37.852Z,12.37
2018-01-04T10:02:05.294Z,12.43
2018-01-04T10:04:32.694Z,13.10
2018-01-04T10:07:00.089Z,13.57
2018-01-04T10:09:27.493Z,11.90
2018-01-04T10:11:54.922Z,12.33
2018-01-04T10:14:22.304Z,13.10
2018-01-04T10:16:49.710Z,13.00
2018-01-04T10:19:17.133Z,13.40
2018-01-04T10:21:44.544Z,17.23
2018-01-04T10:24:11.956Z,12.93
2018-01-04T10:26:39.366Z,13.63
2018-01-04T10:29:06.765Z,14.20
2018-01-04T10:31:34.177Z,14.67
2018-01-04T10:34:01.586Z,14.37
2018-01-04T10:36:28.993Z,16.73
2018-01-04T10:38:56.401Z,17.80
2018-01-04T10:41:23.814Z,13.87
2018-01-04T10:43:51.212Z,12.33
2018-01-04T10:46:18.622Z,13.37
2018-01-04T10:48:46.029Z,13.73
2018-01-04T10:51:13.509Z,16.10
2018-01-04T10:53:40.969Z,14.17
2018-01-04T10:56:08.391Z,12.33
2018-01-04T10:58:35.801Z,13.33
2018-01-04T11:01:03.208Z,14.43
2018-01-04T11:03:30.630Z,17.17
2018-01-04T11:05:58.025Z,13.93
2018-01-04T11:08:25.429Z,13.80
2018-01-04T11:10:52.841Z,14.23
2018-01-04T11:13:20.249Z,11.37
2018-01-04T11:15:47.661Z,12.53
2018-01-04T11:18:15.065Z,11.90
2018-01-04T11:20:42.474Z,11.53
2018-01-04T11:23:09.901Z,11.30
2018-01-04T11:25:37.386Z,12.27
2018-01-04T11:28:04.812Z,13.37
2018-01-04T11:30:32.227Z,12.23
2018-01-04T11:32:59.632Z,12.43
2018-01-04T11:35:27.042Z,11.37
2018-01-04T11:37:54.502Z,11.60
2018-01-04T11:40:21.860Z,14.17
2018-01-04T11:42:49.272Z,12.77
2018-01-04T11:45:16.676Z,13.47
2018-01-04T11:47:44.098Z,14.33
2018-01-04T11:50:11.517Z,13.23
2018-01-04T11:52:38.928Z,10.87
2018-01-04T11:55:06.346Z,11.47
2018-01-04T11:57:33.770Z,11.73
2018-01-04T12:00:01.167Z,13.13
2018-01-04T12:02:28.569Z,13.80
2018-01-04T12:04:55.980Z,14.17
2018-01-04T12:07:23.393Z,12.50
2018-01-04T12:09:50.802Z,12.77
2018-01-04T12:12:18.214Z,13.80
2018-01-04T12:14:45.647Z,13.80
2018-01-04T12:17:13.095Z,15.40
2018-01-04T12:19:40.450Z,13.97
2018-01-04T12:22:07.869Z,14.50
2018-01-04T12:24:35.274Z,14.20
2018-01-04T12:27:02.677Z,14.73
2018-01-04T12:29:30.089Z,13.47
2018-01-04T12:31:57.502Z,13.17
2018-01-04T12:34:24.921Z,12.40
2018-01-04T12:36:52.321Z,12.03
2018-01-04T12:39:19.733Z,13.23
2018-01-04T12:41:47.150Z,12.50
2018-01-04T12:44:14.562Z,12.83
2018-01-04T12:46:41.969Z,12.80
2018-01-04T12:49:09.373Z,12.90
2018-01-04T12:51:36.781Z,13.30
2018-01-04T12:54:04.180Z,14.73
2018-01-04T12:56:31.592Z,13.57
2018-01-04T12:58:58.995Z,14.47
2018-01-04T13:01:26.408Z,13.97
2018-01-04T13:03:53.810Z,13.50
2018-01-04T13:06:21.222Z,13.37
2018-01-04T13:08:48.632Z,11.77
2018-01-04T13:11:16.041Z,11.43
2018-01-04T13:13:43.457Z,12.87
2018-01-04T13:16:10.864Z,12.10
2018-01-04T13:18:38.273Z,11.23
2018-01-04T13:21:05.681Z,10.43
2018-01-04T13:23:33.089Z,10.57
2018-01-04T13:26:00.493Z,11.77
2018-01-04T13:28:27.906Z,10.30
2018-01-04T13:30:55.316Z,10.20
2018-01-04T13:33:22.749Z,10.93
2018-01-04T13:35:50.156Z,10.97
2018-01-04T13:38:17.608Z,11.27
2018-01-04T13:40:45.124Z,11.43
2018-01-04T13:43:12.534Z,12.67
2018-01-04T13:45:39.945Z,12.33
2018-01-04T13:48:07.345Z,12.20
2018-01-04T13:50:34.762Z,11.13
2018-01-04T13:53:02.415Z,10.80
2018-01-04T13:55:29.861Z,11.40
2018-01-04T13:57:57.270Z,11.57
2018-01-04T14:00:24.729Z,12.00
2018-01-04T14:02:52.218Z,11.30
2018-01-04T14:05:19.728Z,11.60
2018-01-04T14:07:47.201Z,11.30
2018-01-04T14:10:24.102Z,11.50
2018-01-04T14:12:51.509Z,11.70
2018-01-04T14:15:18.913Z,12.03
2018-01-04T14:17:46.329Z,12.53
2018-01-04T14:20:13.725Z,12.37
2018-01-04T14:22:41.137Z,12.37
2018-01-04T14:25:08.544Z,12.17
2018-01-04T14:27:35.953Z,12.33
2018-01-04T14:30:03.365Z,12.27
2018-01-04T14:32:30.772Z,13.37
2018-01-04T14:34:58.181Z,13.47
2018-01-04T14:37:25.593Z,12.67
2018-01-04T14:39:53.013Z,13.20
2018-01-04T14:42:20.415Z,13.20
2018-01-04T14:44:47.834Z,13.30
2018-01-04T14:47:15.298Z,13.07
2018-01-04T14:49:42.701Z,13.80
2018-01-04T14:52:10.113Z,13.30
2018-01-04T14:54:37.512Z,14.73
2018-01-04T14:57:04.925Z,13.60
2018-01-04T14:59:32.337Z,13.63
2018-01-04T15:01:59.755Z,12.90
2018-01-04T15:04:27.161Z,13.43
2018-01-04T15:06:54.578Z,12.90
2018-01-04T15:09:21.981Z,14.00
2018-01-04T15:11:49.389Z,12.77
2018-01-04T15:14:16.800Z,14.23
2018-01-04T15:16:44.209Z,13.23
2018-01-04T15:19:11.628Z,13.90
2018-01-04T15:21:39.033Z,15.33
2018-01-04T15:24:06.446Z,14.30
2018-01-04T15:26:33.856Z,14.97
2018-01-04T15:29:01.260Z,14.43
2018-01-04T15:31:28.702Z,15.17
2018-01-04T15:33:56.093Z,16.57
2018-01-04T15:36:23.505Z,15.23
2018-01-04T15:38:50.918Z,14.10
2018-01-04T15:41:18.338Z,15.37
2018-01-04T15:43:45.754Z,15.43
2018-01-04T15:46:14.168Z,16.00
2018-01-04T15:48:41.589Z,15.80
2018-01-04T15:51:08.993Z,16.60
2018-01-04T15:53:36.438Z,15.30
2018-01-04T15:56:03.876Z,15.80
2018-01-04T15:58:31.296Z,21.67
2018-01-04T16:00:58.700Z,15.93
2018-01-04T16:03:26.130Z,15.77
2018-01-04T16:05:53.542Z,16.40
2018-01-04T16:08:20.979Z,16.20
2018-01-04T16:10:48.381Z,21.33
2018-01-04T16:13:15.789Z,17.37
2018-01-04T16:15:43.210Z,27.80
2018-01-04T16:18:10.617Z,19.67
2018-01-04T16:20:38.026Z,19.90
2018-01-04T16:23:05.469Z,21.83
2018-01-04T16:25:32.878Z,18.10
2018-01-04T16:28:00.290Z,19.40
2018-01-04T16:30:27.696Z,17.67
2018-01-04T16:32:55.125Z,29.00
2018-01-04T16:35:22.534Z,21.83
2018-01-04T16:37:49.996Z,17.80
2018-01-04T16:40:17.418Z,16.50
2018-01-04T16:42:44.821Z,19.37
2018-01-04T16:45:12.242Z,18.37
2018-01-04T16:47:39.649Z,23.20
2018-01-04T16:50:07.121Z,22.30
2018-01-04T16:52:35.193Z,17.40
2018-01-04T16:55:02.601Z,20.13
2018-01-04T16:57:30.017Z,24.57
2018-01-04T16:59:57.429Z,23.07
2018-01-04T17:02:24.849Z,19.93
2018-01-04T17:04:52.253Z,24.10
2018-01-04T17:07:19.680Z,30.77
2018-01-04T17:09:47.093Z,28.40
2018-01-04T17:12:14.513Z,20.77
2018-01-04T17:14:41.933Z,24.27
2018-01-04T17:17:09.345Z,28.80
2018-01-04T17:19:36.785Z,26.30
2018-01-04T17:22:04.201Z,23.60
2018-01-04T17:24:31.609Z,24.43
2018-01-04T17:26:59.041Z,27.03
2018-01-04T17:29:26.438Z,22.93
2018-01-04T17:31:53.857Z,22.23
2018-01-04T17:34:21.272Z,25.33
2018-01-04T17:36:48.698Z,22.10
2018-01-04T17:39:16.124Z,24.27
2018-01-04T17:41:43.542Z,25.03
2018-01-04T17:44:10.952Z,31.60
2018-01-04T17:46:38.356Z,32.17
2018-01-04T17:49:05.777Z,25.33
2018-01-04T17:51:33.185Z,33.23
2018-01-04T17:54:00.961Z,31.53
2018-01-04T17:56:28.365Z,29.27
2018-01-04T17:58:55.789Z,31.27
2018-01-04T18:01:23.201Z,30.50
2018-01-04T18:03:50.610Z,33.33
2018-01-04T18:06:18.022Z,26.23
2018-01-04T18:08:45.504Z,32.50
2018-01-04T18:11:12.996Z,36.40
2018-01-04T18:13:40.398Z,37.60
2018-01-04T18:16:07.810Z,35.10
2018-01-04T18:18:35.223Z,36.40
2018-01-04T18:21:02.650Z,32.30
2018-01-04T18:23:30.062Z,29.30
2018-01-04T18:25:57.468Z,30.30
2018-01-04T18:28:24.889Z,40.07
2018-01-04T18:30:52.381Z,31.90
2018-01-04T18:33:19.869Z,29.70
2018-01-04T18:35:47.989Z,33.10
2018-01-04T18:38:15.416Z,42.97
2018-01-04T18:40:42.822Z,25.77
2018-01-04T18:43:10.249Z,34.00
2018-01-04T18:45:37.666Z,33.07
2018-01-04T18:48:05.073Z,36.63
2018-01-04T18:50:32.498Z,37.43
2018-01-04T18:52:59.944Z,30.27
2018-01-04T18:55:27.329Z,32.90
2018-01-04T18:57:54.742Z,35.87
2018-01-04T19:00:22.161Z,39.50
2018-01-04T19:02:49.566Z,25.30
2018-01-04T19:05:16.989Z,30.13
2018-01-04T19:07:44.394Z,30.93
2018-01-04T19:10:11.811Z,37.73
2018-01-04T19:12:39.222Z,30.10
2018-01-04T19:15:06.693Z,40.27
2018-01-04T19:17:34.164Z,34.03
2018-01-04T19:20:02.106Z,30.37
2018-01-04T19:22:29.513Z,29.93
2018-01-04T19:24:57.121Z,39.33
2018-01-04T19:27:24.597Z,36.87
2018-01-04T19:29:52.057Z,38.17
2018-01-04T19:32:19.470Z,41.00
2018-01-04T19:34:54.173Z,33.23
2018-01-04T19:37:21.591Z,37.87
2018-01-04T19:39:49.067Z,31.83
2018-01-04T19:42:18.622Z,34.90
2018-01-04T19:44:46.045Z,36.17
2018-01-04T19:47:13.517Z,33.40
2018-01-04T19:49:40.945Z,22.67
2018-01-04T19:52:08.418Z,32.00
2018-01-04T19:54:35.828Z,29.70
2018-01-04T19:57:03.244Z,40.57
2018-01-04T19:59:30.653Z,40.13
2018-01-04T20:01:58.074Z,33.20
2018-01-04T20:04:27.026Z,36.40
2018-01-04T20:06:58.263Z,24.97
2018-01-04T20:09:25.674Z,27.27
2018-01-04T20:11:53.237Z,25.77
2018-01-04T20:14:20.693Z,25.93
2018-01-04T20:16:49.109Z,22.23
2018-01-04T20:19:16.553Z,28.50
2018-01-04T20:21:43.960Z,24.20
2018-01-04T20:24:11.405Z,20.20
2018-01-04T20:26:39.806Z,19.93
2018-01-04T20:29:07.213Z,25.47
2018-01-04T20:31:34.677Z,22.10
2018-01-04T20:34:02.094Z,18.77
2018-01-04T20:36:29.521Z,22.90
2018-01-04T20:38:56.937Z,22.80
2018-01-04T20:41:24.369Z,15.43
2018-01-04T20:43:51.796Z,24.90
2018-01-04T20:46:19.204Z,22.37
2018-01-04T20:48:46.661Z,22.40
2018-01-04T20:51:14.069Z,22.83
2018-01-04T20:53:41.481Z,17.03
2018-01-04T20:56:08.889Z,14.80
2018-01-04T20:58:36.337Z,22.97
2018-01-04T21:01:03.733Z,18.43
2018-01-04T21:03:31.153Z,23.33
2018-01-04T21:05:58.572Z,21.70
2018-01-04T21:08:25.993Z,12.63
2018-01-04T21:10:53.418Z,16.63
2018-01-04T21:13:20.830Z,14.07
2018-01-04T21:15:48.245Z,23.30
2018-01-04T21:18:15.662Z,18.17
2018-01-04T21:20:43.072Z,17.40
2018-01-04T21:23:10.485Z,19.77
2018-01-04T21:25:45.129Z,13.30
2018-01-04T21:28:12.550Z,17.17
2018-01-04T21:30:39.957Z,22.73
2018-01-04T21:33:07.376Z,16.93
2018-01-04T21:35:34.785Z,13.33
2018-01-04T21:38:02.198Z,12.40
2018-01-04T21:40:29.617Z,17.77
2018-01-04T21:42:57.041Z,18.80
2018-01-04T21:45:24.461Z,19.10
2018-01-04T21:47:51.871Z,14.07
2018-01-04T21:50:19.288Z,14.80
2018-01-04T21:52:46.715Z,14.27
2018-01-04T21:55:14.121Z,22.97
2018-01-04T21:57:41.554Z,19.47
2018-01-04T22:00:08.966Z,22.40
2018-01-04T22:02:36.385Z,21.50
2018-01-04T22:05:03.801Z,17.67
2018-01-04T22:07:31.233Z,13.60
2018-01-04T22:09:58.655Z,17.30
2018-01-04T22:12:26.082Z,19.97
2018-01-04T22:14:53.504Z,17.80
2018-01-04T22:17:20.927Z,16.00
2018-01-04T22:19:48.337Z,22.77
2018-01-04T22:22:15.750Z,21.00
2018-01-04T22:24:43.185Z,17.23
2018-01-04T22:27:10.597Z,16.33
2018-01-04T22:29:38.000Z,28.07
2018-01-04T22:32:05.427Z,23.20
2018-01-04T22:34:32.825Z,15.77
2018-01-04T22:37:00.246Z,16.70
2018-01-04T22:39:27.734Z,16.37
2018-01-04T22:41:55.159Z,19.67
2018-01-04T22:44:22.565Z,21.20
2018-01-04T22:46:49.970Z,18.60
2018-01-04T22:49:17.381Z,12.63
2018-01-04T22:51:44.801Z,25.33
2018-01-04T22:54:12.555Z,14.47
2018-01-04T22:56:39.977Z,21.67
2018-01-04T22:59:07.384Z,16.33
2018-01-04T23:01:34.830Z,16.70
2018-01-04T23:04:02.242Z,12.53
2018-01-04T23:06:29.657Z,22.27
2018-01-04T23:08:57.070Z,15.07
2018-01-04T23:11:24.477Z,15.93
2018-01-04T23:13:51.895Z,17.57
2018-01-04T23:16:19.293Z,15.50
2018-01-04T23:18:46.705Z,18.90
2018-01-04T23:21:14.123Z,17.13
2018-01-04T23:23:41.528Z,16.67
2018-01-04T23:26:08.933Z,15.37
2018-01-04T23:28:36.345Z,11.30
2018-01-04T23:31:03.750Z,17.73
2018-01-04T23:33:31.177Z,22.90
2018-01-04T23:35:58.581Z,15.57
2018-01-04T23:38:25.998Z,16.83
2018-01-04T23:40:53.402Z,18.67
2018-01-04T23:43:20.825Z,14.13
2018-01-04T23:45:48.229Z,14.23
2018-01-04T23:48:15.641Z,16.30
2018-01-04T23:50:43.059Z,22.87
2018-01-04T23:53:10.452Z,17.13
2018-01-04T23:55:37.865Z,16.77
2018-01-04T23:58:05.272Z,16.57
